createdAt,value
2023-11-04T00:00:56.047Z,0.60
2023-11-04T00:03:30.238Z,0.63
2023-11-04T00:05:56.973Z,0.55
2023-11-04T00:08:23.642Z,0.80
2023-11-04T00:10:54.101Z,0.75
2023-11-04T00:13:21.181Z,0.50
2023-11-04T00:15:48.402Z,0.60
2023-11-04T00:18:15.715Z,0.60
2023-11-04T00:20:49.201Z,1.23
2023-11-04T00:23:19.205Z,0.60
2023-11-04T00:25:46.424Z,1.23
2023-11-04T00:28:13.663Z,0.50
2023-11-04T00:30:40.907Z,0.60
2023-11-04T00:33:08.245Z,0.60
2023-11-04T00:35:35.656Z,1.90
2023-11-04T00:38:02.800Z,0.57
2023-11-04T00:40:29.919Z,1.15
2023-11-04T00:42:57.064Z,0.50
2023-11-04T00:45:24.315Z,0.50
2023-11-04T00:47:51.586Z,1.05
2023-11-04T00:50:21.404Z,0.70
2023-11-04T00:52:49.439Z,0.60
2023-11-04T00:55:18.467Z,0.82
2023-11-04T00:57:46.103Z,0.85
2023-11-04T01:00:13.662Z,0.60
2023-11-04T01:02:40.893Z,0.50
2023-11-04T01:05:08.782Z,0.60
2023-11-04T01:07:35.978Z,0.90
2023-11-04T01:10:03.192Z,0.60
2023-11-04T01:12:30.388Z,0.60
2023-11-04T01:14:57.510Z,0.60
2023-11-04T01:17:24.792Z,0.60
2023-11-04T01:19:52.102Z,0.60
2023-11-04T01:22:19.620Z,0.80
2023-11-04T01:24:46.318Z,0.70
2023-11-04T01:27:12.996Z,0.95
2023-11-04T01:29:39.724Z,0.70
2023-11-04T01:32:07.223Z,2.17
2023-11-04T01:34:34.477Z,0.60
2023-11-04T01:37:01.468Z,0.70
2023-11-04T01:39:28.248Z,0.60
2023-11-04T01:41:56.563Z,0.60
2023-11-04T01:44:23.390Z,0.80
2023-11-04T01:46:50.677Z,0.70
2023-11-04T01:49:17.856Z,0.60
2023-11-04T01:51:45.021Z,0.60
2023-11-04T01:54:11.844Z,0.60
2023-11-04T01:56:40.724Z,0.60
2023-11-04T01:59:11.230Z,0.60
2023-11-04T02:01:39.410Z,0.60
2023-11-04T02:04:07.643Z,0.82
2023-11-04T02:06:34.376Z,0.60
2023-11-04T02:09:01.458Z,0.60
2023-11-04T02:11:28.148Z,0.70
2023-11-04T02:13:54.832Z,0.70
2023-11-04T02:16:21.550Z,0.60
2023-11-04T02:18:48.392Z,0.60
2023-11-04T02:21:16.059Z,0.90
2023-11-04T02:23:42.988Z,0.60
2023-11-04T02:26:09.774Z,1.17
2023-11-04T02:28:36.523Z,0.60
2023-11-04T02:31:03.447Z,0.60
2023-11-04T02:33:30.271Z,0.60
2023-11-04T02:35:57.008Z,1.35
2023-11-04T02:38:24.148Z,0.60
2023-11-04T02:40:51.210Z,0.60
2023-11-04T02:43:17.973Z,0.50
2023-11-04T02:45:44.721Z,0.60
2023-11-04T02:48:11.563Z,0.60
2023-11-04T02:50:38.269Z,1.35
2023-11-04T02:53:04.969Z,0.55
2023-11-04T02:55:31.689Z,0.60
2023-11-04T02:57:58.419Z,0.60
2023-11-04T03:00:25.220Z,0.60
2023-11-04T03:02:52.003Z,0.60
2023-11-04T03:05:27.553Z,1.02
2023-11-04T03:07:59.826Z,0.60
2023-11-04T03:10:26.980Z,0.60
2023-11-04T03:12:54.212Z,0.55
2023-11-04T03:15:21.854Z,1.55
2023-11-04T03:17:49.225Z,0.60
2023-11-04T03:20:16.605Z,0.60
2023-11-04T03:22:43.738Z,0.65
2023-11-04T03:25:12.119Z,0.60
2023-11-04T03:27:39.562Z,0.60
2023-11-04T03:30:07.016Z,0.90
2023-11-04T03:32:34.301Z,0.60
2023-11-04T03:35:01.398Z,0.80
2023-11-04T03:37:28.580Z,0.60
2023-11-04T03:39:55.695Z,0.60
2023-11-04T03:42:22.903Z,0.60
2023-11-04T03:44:49.998Z,0.60
2023-11-04T03:47:17.294Z,0.60
2023-11-04T03:49:44.491Z,0.60
2023-11-04T03:52:11.590Z,0.75
2023-11-04T03:54:38.737Z,1.33
2023-11-04T03:57:05.855Z,0.60
2023-11-04T03:59:32.957Z,0.60
2023-11-04T04:02:00.058Z,0.60
2023-11-04T04:04:27.263Z,0.60
2023-11-04T04:06:54.410Z,0.60
2023-11-04T04:09:21.563Z,0.80
2023-11-04T04:11:48.716Z,0.50
2023-11-04T04:14:15.837Z,0.60
2023-11-04T04:16:43.224Z,0.60
2023-11-04T04:19:10.483Z,0.57
2023-11-04T04:21:39.515Z,0.60
2023-11-04T04:24:06.774Z,1.00
2023-11-04T04:26:33.880Z,0.60
2023-11-04T04:29:01.014Z,0.50
2023-11-04T04:31:29.031Z,0.60
2023-11-04T04:33:56.558Z,0.50
2023-11-04T04:36:23.970Z,0.60
2023-11-04T04:38:52.431Z,0.70
2023-11-04T04:41:19.706Z,0.60
2023-11-04T04:43:47.031Z,0.60
2023-11-04T04:46:14.823Z,0.60
2023-11-04T04:48:41.998Z,0.50
2023-11-04T04:51:09.138Z,0.60
2023-11-04T04:53:37.413Z,0.60
2023-11-04T04:56:04.862Z,0.93
2023-11-04T04:58:32.045Z,0.70
2023-11-04T05:00:59.387Z,0.60
2023-11-04T05:03:27.986Z,0.63
2023-11-04T05:05:55.208Z,0.60
2023-11-04T05:08:22.623Z,0.60
2023-11-04T05:10:49.755Z,0.60
2023-11-04T05:13:16.894Z,0.70
2023-11-04T05:15:44.305Z,0.70
2023-11-04T05:18:11.755Z,0.70
2023-11-04T05:20:38.908Z,0.60
2023-11-04T05:23:06.094Z,0.57
2023-11-04T05:25:35.418Z,0.60
2023-11-04T05:28:03.610Z,0.60
2023-11-04T05:30:30.693Z,0.60
2023-11-04T05:32:57.648Z,0.60
2023-11-04T05:35:24.497Z,1.00
2023-11-04T05:37:51.787Z,0.60
2023-11-04T05:40:18.457Z,0.63
2023-11-04T05:42:45.238Z,3.05
2023-11-04T05:45:12.350Z,4.18
2023-11-04T05:47:39.037Z,2.67
2023-11-04T05:50:06.563Z,4.55
2023-11-04T05:52:33.275Z,2.70
2023-11-04T05:55:00.182Z,2.75
2023-11-04T05:57:26.969Z,2.95
2023-11-04T05:59:53.683Z,5.90
2023-11-04T06:02:20.363Z,3.63
2023-11-04T06:04:47.160Z,4.63
2023-11-04T06:07:14.221Z,3.35
2023-11-04T06:09:41.227Z,2.67
2023-11-04T06:12:08.805Z,3.70
2023-11-04T06:14:35.605Z,4.68
2023-11-04T06:17:03.622Z,4.55
2023-11-04T06:19:30.420Z,3.75
2023-11-04T06:21:57.265Z,4.78
2023-11-04T06:24:24.075Z,3.70
2023-11-04T06:26:50.759Z,5.63
2023-11-04T06:29:18.030Z,5.57
2023-11-04T06:31:44.774Z,6.00
2023-11-04T06:34:12.545Z,4.63
2023-11-04T06:36:39.505Z,5.15
2023-11-04T06:39:06.904Z,4.18
2023-11-04T06:41:34.606Z,4.80
2023-11-04T06:44:02.425Z,4.03
2023-11-04T06:46:29.082Z,6.07
2023-11-04T06:48:55.994Z,4.88
2023-11-04T06:51:23.121Z,4.32
2023-11-04T06:53:51.097Z,5.47
2023-11-04T06:56:17.974Z,3.90
2023-11-04T06:58:44.926Z,4.60
2023-11-04T07:01:16.377Z,4.93
2023-11-04T07:03:43.484Z,7.15
2023-11-04T07:06:19.975Z,2.38
2023-11-04T07:08:47.511Z,4.97
2023-11-04T07:11:15.769Z,5.13
2023-11-04T07:13:43.125Z,6.72
2023-11-04T07:16:10.818Z,3.25
2023-11-04T07:18:38.969Z,9.32
2023-11-04T07:21:06.319Z,3.90
2023-11-04T07:23:33.310Z,3.80
2023-11-04T07:26:00.588Z,5.35
2023-11-04T07:28:35.455Z,6.18
2023-11-04T07:31:02.593Z,7.93
2023-11-04T07:33:29.798Z,5.97
2023-11-04T07:35:56.964Z,4.57
2023-11-04T07:38:24.072Z,10.32
2023-11-04T07:40:51.207Z,3.22
2023-11-04T07:43:18.354Z,4.32
2023-11-04T07:45:45.554Z,3.70
2023-11-04T07:48:12.793Z,2.28
2023-11-04T07:50:39.938Z,2.85
2023-11-04T07:53:07.104Z,3.80
2023-11-04T07:55:34.182Z,4.35
2023-11-04T07:58:01.333Z,4.97
2023-11-04T08:00:28.581Z,1.63
2023-11-04T08:02:57.045Z,2.60
2023-11-04T08:05:25.059Z,4.63
2023-11-04T08:07:52.201Z,4.63
2023-11-04T08:10:19.334Z,4.97
2023-11-04T08:12:46.519Z,5.40
2023-11-04T08:15:13.666Z,2.47
2023-11-04T08:17:40.919Z,2.67
2023-11-04T08:20:12.385Z,2.67
2023-11-04T08:22:42.803Z,2.58
2023-11-04T08:25:10.673Z,3.28
2023-11-04T08:27:37.940Z,5.07
2023-11-04T08:30:05.998Z,1.98
2023-11-04T08:32:33.335Z,2.60
2023-11-04T08:35:01.302Z,3.50
2023-11-04T08:37:28.918Z,2.30
2023-11-04T08:39:56.536Z,4.63
2023-11-04T08:42:24.173Z,1.30
2023-11-04T08:44:51.378Z,2.70
2023-11-04T08:47:18.674Z,4.43
2023-11-04T08:49:45.791Z,2.17
2023-11-04T08:52:13.216Z,2.58
2023-11-04T08:54:43.322Z,3.55
2023-11-04T08:57:10.889Z,3.95
2023-11-04T08:59:38.085Z,2.20
2023-11-04T09:02:05.994Z,1.83
2023-11-04T09:04:33.237Z,2.15
2023-11-04T09:07:00.661Z,2.60
2023-11-04T09:09:27.880Z,1.80
2023-11-04T09:11:56.875Z,1.88
2023-11-04T09:14:25.267Z,3.78
2023-11-04T09:16:52.628Z,3.58
2023-11-04T09:19:19.994Z,4.30
2023-11-04T09:21:47.442Z,4.28
2023-11-04T09:24:14.694Z,2.17
2023-11-04T09:26:41.838Z,1.58
2023-11-04T09:29:09.014Z,1.42
2023-11-04T09:31:37.624Z,1.25
2023-11-04T09:34:08.275Z,1.17
2023-11-04T09:36:35.531Z,1.67
2023-11-04T09:39:02.822Z,4.38
2023-11-04T09:41:29.966Z,2.58
2023-11-04T09:43:57.372Z,1.20
2023-11-04T09:46:24.597Z,1.52
2023-11-04T09:48:52.508Z,1.35
2023-11-04T09:51:23.082Z,1.33
2023-11-04T09:53:54.506Z,2.42
2023-11-04T09:56:23.575Z,1.35
2023-11-04T09:58:51.557Z,2.45
2023-11-04T10:01:22.212Z,1.08
2023-11-04T10:03:50.103Z,1.20
2023-11-04T10:06:18.511Z,2.38
2023-11-04T10:08:47.272Z,2.10
2023-11-04T10:11:14.382Z,1.40
2023-11-04T10:13:41.728Z,2.55
2023-11-04T10:16:09.270Z,0.85
2023-11-04T10:18:38.709Z,2.83
2023-11-04T10:21:07.207Z,2.58
2023-11-04T10:23:34.583Z,1.27
2023-11-04T10:26:05.484Z,1.42
2023-11-04T10:28:33.597Z,1.35
2023-11-04T10:31:05.369Z,3.80
2023-11-04T10:33:36.569Z,7.15
2023-11-04T10:36:07.533Z,1.98
2023-11-04T10:38:38.627Z,1.77
2023-11-04T10:41:08.029Z,1.67
2023-11-04T10:43:41.496Z,1.52
2023-11-04T10:46:12.001Z,1.23
2023-11-04T10:48:44.396Z,3.38
2023-11-04T10:51:14.921Z,3.60
2023-11-04T10:53:44.821Z,1.27
2023-11-04T10:56:26.933Z,2.30
2023-11-04T10:59:00.941Z,2.47
2023-11-04T11:01:29.737Z,1.35
2023-11-04T11:03:57.402Z,3.28
2023-11-04T11:06:25.463Z,1.67
2023-11-04T11:08:53.083Z,1.90
2023-11-04T11:11:34.383Z,2.00
2023-11-04T11:14:02.753Z,1.35
2023-11-04T11:16:32.019Z,3.00
2023-11-04T11:19:12.332Z,2.83
2023-11-04T11:21:50.646Z,2.72
2023-11-04T11:24:21.542Z,2.08
2023-11-04T11:26:52.209Z,1.75
2023-11-04T11:29:28.533Z,2.05
2023-11-04T11:32:06.381Z,1.70
2023-11-04T11:34:33.943Z,1.58
2023-11-04T11:37:04.385Z,2.58
2023-11-04T11:39:31.541Z,1.35
2023-11-04T11:42:00.740Z,3.17
2023-11-04T11:44:27.812Z,0.98
2023-11-04T11:46:58.114Z,1.83
2023-11-04T11:49:25.283Z,3.10
2023-11-04T11:51:52.495Z,2.42
2023-11-04T11:54:19.716Z,0.85
2023-11-04T11:56:46.883Z,2.38
2023-11-04T11:59:14.241Z,2.42
2023-11-04T12:01:41.020Z,1.58
2023-11-04T12:04:08.083Z,2.42
2023-11-04T12:06:37.409Z,2.10
2023-11-04T12:09:06.708Z,2.08
2023-11-04T12:11:33.677Z,1.88
2023-11-04T12:14:02.380Z,4.55
2023-11-04T12:16:33.036Z,2.35
2023-11-04T12:19:00.071Z,2.65
2023-11-04T12:21:27.154Z,1.75
2023-11-04T12:23:54.140Z,6.63
2023-11-04T12:26:30.926Z,3.53
2023-11-04T12:28:58.447Z,9.25
2023-11-04T12:31:26.290Z,3.45
2023-11-04T12:33:53.518Z,6.10
2023-11-04T12:36:20.640Z,5.07
2023-11-04T12:38:48.100Z,3.97
2023-11-04T12:41:15.458Z,2.80
2023-11-04T12:43:44.588Z,4.57
2023-11-04T12:46:12.336Z,3.33
2023-11-04T12:48:39.405Z,2.05
2023-11-04T12:51:06.618Z,2.38
2023-11-04T12:53:35.199Z,1.65
2023-11-04T12:56:02.176Z,2.22
2023-11-04T12:58:28.880Z,2.78
2023-11-04T13:00:55.759Z,2.22
2023-11-04T13:03:22.537Z,2.95
2023-11-04T13:05:49.358Z,3.83
2023-11-04T13:08:16.068Z,1.83
2023-11-04T13:10:43.127Z,4.95
2023-11-04T13:13:10.132Z,3.28
2023-11-04T13:15:36.831Z,2.47
2023-11-04T13:18:04.113Z,2.80
2023-11-04T13:20:30.948Z,3.90
2023-11-04T13:22:57.638Z,1.40
2023-11-04T13:25:24.325Z,3.67
2023-11-04T13:27:51.100Z,3.50
2023-11-04T13:30:17.832Z,4.43
2023-11-04T13:32:44.885Z,4.20
2023-11-04T13:35:12.039Z,3.10
2023-11-04T13:37:38.846Z,3.30
2023-11-04T13:40:07.083Z,2.00
2023-11-04T13:42:33.915Z,3.95
2023-11-04T13:45:01.951Z,1.50
2023-11-04T13:47:31.417Z,4.55
2023-11-04T13:49:58.199Z,1.45
2023-11-04T13:52:26.040Z,3.03
2023-11-04T13:54:52.765Z,4.55
2023-11-04T13:57:20.025Z,1.38
2023-11-04T13:59:48.617Z,3.70
2023-11-04T14:02:15.740Z,2.50
2023-11-04T14:04:42.659Z,5.38
2023-11-04T14:07:09.502Z,3.72
2023-11-04T14:09:37.008Z,1.00
2023-11-04T14:12:03.974Z,2.40
2023-11-04T14:14:30.720Z,6.82
2023-11-04T14:16:59.007Z,6.57
2023-11-04T14:19:26.703Z,8.02
2023-11-04T14:21:53.495Z,7.40
2023-11-04T14:24:20.171Z,3.70
2023-11-04T14:26:47.088Z,4.93
2023-11-04T14:29:13.728Z,4.60
2023-11-04T14:31:40.912Z,2.17
2023-11-04T14:34:08.015Z,3.78
2023-11-04T14:36:35.099Z,5.15
2023-11-04T14:39:04.604Z,1.90
2023-11-04T14:41:31.926Z,4.85
2023-11-04T14:43:59.067Z,1.67
2023-11-04T14:46:26.169Z,2.00
2023-11-04T14:48:53.532Z,2.90
2023-11-04T14:51:25.413Z,5.22
2023-11-04T14:53:54.293Z,5.33
2023-11-04T14:56:21.550Z,2.05
2023-11-04T14:58:48.635Z,3.00
2023-11-04T15:01:17.614Z,4.93
2023-11-04T15:03:44.855Z,1.95
2023-11-04T15:06:11.818Z,2.17
2023-11-04T15:08:38.666Z,5.28
2023-11-04T15:11:05.482Z,3.83
2023-11-04T15:13:32.215Z,2.40
2023-11-04T15:15:59.057Z,1.70
2023-11-04T15:18:25.845Z,2.90
2023-11-04T15:20:53.000Z,4.13
2023-11-04T15:23:20.168Z,5.80
2023-11-04T15:25:47.292Z,9.20
2023-11-04T15:28:14.388Z,3.05
2023-11-04T15:30:41.552Z,4.00
2023-11-04T15:33:09.873Z,7.32
2023-11-04T15:35:37.848Z,10.63
2023-11-04T15:38:05.070Z,17.50
2023-11-04T15:40:32.554Z,17.95
2023-11-04T15:43:00.435Z,11.48
2023-11-04T15:45:27.674Z,6.53
2023-11-04T15:47:54.922Z,15.77
2023-11-04T15:50:22.043Z,6.60
2023-11-04T15:52:49.855Z,7.57
2023-11-04T15:55:17.178Z,20.48
2023-11-04T15:57:44.330Z,8.63
2023-11-04T16:00:11.867Z,19.08
2023-11-04T16:02:39.746Z,7.20
2023-11-04T16:05:07.490Z,8.05
2023-11-04T16:07:36.604Z,4.57
2023-11-04T16:10:04.962Z,4.97
2023-11-04T16:12:32.106Z,3.20
2023-11-04T16:14:59.198Z,2.38
2023-11-04T16:17:26.579Z,1.85
2023-11-04T16:19:54.184Z,2.28
2023-11-04T16:22:21.399Z,3.63
2023-11-04T16:24:51.665Z,6.60
2023-11-04T16:27:18.911Z,3.42
2023-11-04T16:29:46.232Z,3.15
2023-11-04T16:32:13.397Z,3.67
2023-11-04T16:34:40.723Z,4.50
2023-11-04T16:37:08.114Z,6.85
2023-11-04T16:39:42.603Z,9.00
2023-11-04T16:42:09.850Z,5.68
2023-11-04T16:44:36.911Z,11.93
2023-11-04T16:47:06.983Z,8.55
2023-11-04T16:49:36.847Z,11.48
2023-11-04T16:52:07.346Z,11.35
2023-11-04T16:54:34.439Z,7.03
2023-11-04T16:57:01.764Z,8.88
2023-11-04T16:59:28.845Z,6.53
2023-11-04T17:01:57.164Z,7.57
2023-11-04T17:04:24.268Z,45.55
2023-11-04T17:06:51.212Z,23.15
2023-11-04T17:09:19.166Z,66.00
2023-11-04T17:11:46.397Z,287.88
2023-11-04T17:14:13.160Z,199.50
2023-11-04T17:16:39.907Z,172.93
2023-11-04T17:19:07.153Z,139.50
2023-11-04T17:21:33.990Z,194.43
2023-11-04T17:24:00.766Z,190.90
2023-11-04T17:26:27.475Z,218.52
2023-11-04T17:28:54.173Z,163.65
2023-11-04T17:31:21.306Z,88.50
2023-11-04T17:33:48.553Z,42.20
2023-11-04T17:36:15.715Z,42.63
2023-11-04T17:38:42.836Z,21.75
2023-11-04T17:41:09.907Z,29.05
2023-11-04T17:43:38.029Z,17.73
2023-11-04T17:46:05.363Z,28.52
2023-11-04T17:48:33.384Z,17.45
2023-11-04T17:51:00.789Z,39.92
2023-11-04T17:53:29.601Z,13.38
2023-11-04T17:55:56.904Z,21.77
2023-11-04T17:58:25.420Z,19.48
2023-11-04T18:00:52.554Z,19.73
2023-11-04T18:03:21.117Z,34.05
2023-11-04T18:05:48.448Z,18.40
2023-11-04T18:08:15.567Z,9.73
2023-11-04T18:10:42.631Z,16.10
2023-11-04T18:13:09.767Z,24.73
2023-11-04T18:15:36.894Z,19.63
2023-11-04T18:18:04.662Z,22.80
2023-11-04T18:20:32.084Z,17.83
2023-11-04T18:22:59.872Z,15.73
2023-11-04T18:25:31.422Z,12.20
2023-11-04T18:28:04.454Z,18.45
2023-11-04T18:30:33.523Z,11.07
2023-11-04T18:33:00.882Z,13.23
2023-11-04T18:35:27.658Z,14.35
2023-11-04T18:37:54.410Z,8.15
2023-11-04T18:40:21.524Z,8.82
2023-11-04T18:42:48.740Z,6.82
2023-11-04T18:45:15.540Z,4.60
2023-11-04T18:47:42.324Z,6.95
2023-11-04T18:50:09.487Z,7.55
2023-11-04T18:52:38.159Z,5.25
2023-11-04T18:55:06.287Z,9.10
2023-11-04T18:57:34.972Z,8.00
2023-11-04T19:00:02.135Z,6.88
2023-11-04T19:02:29.294Z,6.72
2023-11-04T19:04:56.533Z,7.15
2023-11-04T19:07:23.751Z,4.80
2023-11-04T19:09:50.872Z,5.05
2023-11-04T19:12:17.951Z,4.35
2023-11-04T19:14:45.022Z,4.82
2023-11-04T19:17:12.367Z,7.68
2023-11-04T19:19:39.583Z,4.35
2023-11-04T19:22:06.811Z,4.80
2023-11-04T19:24:34.003Z,3.35
2023-11-04T19:27:01.112Z,5.75
2023-11-04T19:29:28.167Z,4.28
2023-11-04T19:31:55.297Z,6.90
2023-11-04T19:34:22.510Z,4.95
2023-11-04T19:36:50.607Z,6.32
2023-11-04T19:39:17.841Z,4.97
2023-11-04T19:41:44.965Z,7.47
2023-11-04T19:44:12.146Z,5.85
2023-11-04T19:46:43.602Z,5.63
2023-11-04T19:49:10.778Z,5.82
2023-11-04T19:51:37.966Z,5.50
2023-11-04T19:54:05.434Z,4.97
2023-11-04T19:56:33.570Z,3.38
2023-11-04T19:59:00.723Z,6.72
2023-11-04T20:01:27.979Z,6.80
2023-11-04T20:03:55.604Z,4.82
2023-11-04T20:06:22.790Z,5.80
2023-11-04T20:08:51.590Z,10.80
2023-11-04T20:11:22.605Z,6.80
2023-11-04T20:13:50.340Z,5.50
2023-11-04T20:16:17.533Z,5.07
2023-11-04T20:18:44.759Z,2.35
2023-11-04T20:21:12.091Z,3.63
2023-11-04T20:23:39.552Z,3.28
2023-11-04T20:26:07.705Z,3.65
2023-11-04T20:28:34.800Z,2.45
2023-11-04T20:31:02.039Z,4.78
2023-11-04T20:33:29.156Z,5.10
2023-11-04T20:35:56.693Z,4.65
2023-11-04T20:38:23.865Z,3.63
2023-11-04T20:40:51.132Z,4.03
2023-11-04T20:43:18.282Z,4.03
2023-11-04T20:45:45.589Z,4.63
2023-11-04T20:48:12.835Z,3.22
2023-11-04T20:50:40.435Z,9.88
2023-11-04T20:53:07.486Z,5.28
2023-11-04T20:55:34.610Z,5.07
2023-11-04T20:58:01.788Z,6.72
2023-11-04T21:00:29.036Z,6.53
2023-11-04T21:02:56.240Z,4.18
2023-11-04T21:05:23.914Z,3.47
2023-11-04T21:07:51.157Z,5.55
2023-11-04T21:10:18.381Z,4.30
2023-11-04T21:12:45.611Z,3.60
2023-11-04T21:15:13.649Z,4.13
2023-11-04T21:17:43.259Z,3.58
2023-11-04T21:20:10.690Z,3.58
2023-11-04T21:22:40.772Z,3.05
2023-11-04T21:25:09.808Z,6.15
2023-11-04T21:27:40.489Z,5.45
2023-11-04T21:30:08.258Z,5.57
2023-11-04T21:32:35.717Z,4.63
2023-11-04T21:35:03.310Z,3.13
2023-11-04T21:37:30.449Z,2.53
2023-11-04T21:39:57.599Z,5.03
2023-11-04T21:42:24.897Z,3.28
2023-11-04T21:44:52.006Z,5.03
2023-11-04T21:47:19.062Z,3.83
2023-11-04T21:49:46.140Z,10.05
2023-11-04T21:52:13.268Z,5.80
2023-11-04T21:54:40.602Z,4.50
2023-11-04T21:57:07.817Z,4.28
2023-11-04T21:59:34.930Z,5.63
2023-11-04T22:02:02.020Z,3.60
2023-11-04T22:04:29.273Z,5.13
2023-11-04T22:06:56.557Z,2.67
2023-11-04T22:09:23.805Z,3.75
2023-11-04T22:11:51.216Z,3.33
2023-11-04T22:14:18.339Z,2.58
2023-11-04T22:16:45.744Z,3.47
2023-11-04T22:19:13.145Z,4.10
2023-11-04T22:21:40.474Z,6.95
2023-11-04T22:24:07.699Z,1.55
2023-11-04T22:26:36.485Z,3.45
2023-11-04T22:29:03.554Z,1.60
2023-11-04T22:31:30.719Z,3.45
2023-11-04T22:33:58.112Z,2.50
2023-11-04T22:36:26.203Z,1.30
2023-11-04T22:38:52.914Z,0.93
2023-11-04T22:41:19.664Z,1.35
2023-11-04T22:43:46.354Z,1.27
2023-11-04T22:46:13.123Z,2.40
2023-11-04T22:48:39.926Z,1.48
2023-11-04T22:51:06.721Z,1.25
2023-11-04T22:53:33.392Z,1.63
2023-11-04T22:56:00.611Z,1.02
2023-11-04T22:58:27.334Z,0.80
2023-11-04T23:00:54.140Z,1.48
2023-11-04T23:03:21.148Z,1.42
2023-11-04T23:05:48.421Z,1.58
2023-11-04T23:08:16.443Z,3.40
2023-11-04T23:10:43.228Z,3.03
2023-11-04T23:13:09.960Z,2.38
2023-11-04T23:15:36.723Z,2.97
2023-11-04T23:18:03.581Z,1.10
2023-11-04T23:20:30.551Z,1.08
2023-11-04T23:22:57.330Z,1.02
2023-11-04T23:25:24.615Z,0.90
2023-11-04T23:27:51.530Z,0.70
2023-11-04T23:30:18.269Z,1.00
2023-11-04T23:32:45.266Z,1.23
2023-11-04T23:35:12.245Z,1.20
2023-11-04T23:37:39.243Z,1.67
2023-11-04T23:40:07.265Z,1.35
2023-11-04T23:42:34.431Z,1.38
2023-11-04T23:45:01.467Z,0.70
2023-11-04T23:47:28.201Z,0.98
2023-11-04T23:49:54.923Z,0.75
2023-11-04T23:52:23.187Z,0.80
2023-11-04T23:54:50.265Z,0.70
2023-11-04T23:57:17.138Z,2.92
2023-11-04T23:59:43.939Z,0.77
